Time;durP1;ratioP1;P1;durP2;ratioP2;P2;SDS_P1;SDS_P2;PMS_P1;PMS_P2;Temp;Humidity;BMP_temperature;BMP_pressure;BME280_temperature;BME280_humidity;BME280_pressure;Samples;Min_cycle;Max_cycle;Signal;HPM_P1;HPM_P2
2021/06/30 00:00:00;;;;;;;81.05;28.45;;;;;;;;;;5093315;28;20472;-67
2021/06/30 00:02:26;;;;;;;91.53;29.23;;;;;;;;;;5093269;28;20032;-66
2021/06/30 00:04:51;;;;;;;75.93;29.13;;;;;;;;;;5093247;28;20052;-66
2021/06/30 00:07:17;;;;;;;94.88;30.67;;;;;;;;;;5093165;28;20020;-67
2021/06/30 00:09:42;;;;;;;87.22;29.65;;;;;;;;;;5093253;28;20040;-67
2021/06/30 00:12:07;;;;;;;87.15;29.65;;;;;;;;;;5093093;28;20055;-66
2021/06/30 00:14:33;;;;;;;84.50;30.38;;;;;;;;;;5092915;28;20109;-67
2021/06/30 00:16:59;;;;;;;85.88;29.55;;;;;;;;;;5093017;28;20028;-66
2021/06/30 00:19:25;;;;;;;81.93;29.30;;;;;;;;;;5093280;28;20048;-66
2021/06/30 00:21:51;;;;;;;100.72;30.40;;;;;;;;;;5092981;28;20024;-67
2021/06/30 00:24:16;;;;;;;91.45;29.95;;;;;;;;;;5093131;28;20490;-67
2021/06/30 00:26:41;;;;;;;99.35;30.13;;;;;;;;;;5093020;28;20099;-66
2021/06/30 00:29:07;;;;;;;89.90;29.17;;;;;;;;;;5095562;28;20060;-67
2021/06/30 00:31:33;;;;;;;100.20;32.47;;;;;;;;;;5097104;28;20032;-66
2021/06/30 00:34:02;;;;;;;92.35;31.05;;;;;;;;;;5096928;28;20429;-66
2021/06/30 00:36:32;;;;;;;87.55;31.13;;;;;;;;;;5097014;28;20119;-66
2021/06/30 00:38:58;;;;;;;76.00;28.70;;;;;;;;;;5097043;28;20036;-66
2021/06/30 00:41:23;;;;;;;96.93;29.65;;;;;;;;;;5096791;28;20032;-66
2021/06/30 00:43:49;;;;;;;119.88;32.45;;;;;;;;;;5096606;28;20072;-66
2021/06/30 00:46:14;;;;;;;79.90;29.70;;;;;;;;;;5096744;28;20034;-66
2021/06/30 00:48:40;;;;;;;88.40;30.13;;;;;;;;;;5096778;28;20473;-66
2021/06/30 00:51:06;;;;;;;89.13;28.58;;;;;;;;;;5096729;28;20028;-66
2021/06/30 00:53:31;;;;;;;76.80;28.52;;;;;;;;;;5095543;28;20111;-67
2021/06/30 00:55:56;;;;;;;95.18;30.80;;;;;;;;;;5096767;28;20115;-66
2021/06/30 00:58:22;;;;;;;74.03;27.67;;;;;;;;;;5097031;28;20027;-67
2021/06/30 01:00:48;;;;;;;90.80;29.65;;;;;;;;;;5096498;28;20472;-65
2021/06/30 01:03:13;;;;;;;95.55;30.80;;;;;;;;;;5096275;28;20043;-66
2021/06/30 01:05:39;;;;;;;98.97;31.23;;;;;;;;;;5096546;28;20048;-66
2021/06/30 01:08:04;;;;;;;113.75;32.75;;;;;;;;;;5096597;28;20032;-67
2021/06/30 01:10:29;;;;;;;120.05;32.47;;;;;;;;;;5096502;28;20107;-67
2021/06/30 01:12:55;;;;;;;83.40;29.65;;;;;;;;;;5096202;28;20106;-66
2021/06/30 01:15:20;;;;;;;99.05;29.92;;;;;;;;;;5096250;28;20385;-66
2021/06/30 01:17:47;;;;;;;94.18;29.58;;;;;;;;;;5095885;28;20052;-67
2021/06/30 01:20:13;;;;;;;154.32;34.92;;;;;;;;;;5096121;28;20020;-66
2021/06/30 01:22:42;;;;;;;88.55;29.15;;;;;;;;;;5096138;28;20032;-65
2021/06/30 01:25:07;;;;;;;84.57;27.83;;;;;;;;;;5096248;28;20024;-66
2021/06/30 01:27:33;;;;;;;74.32;26.90;;;;;;;;;;5096371;28;20356;-67
2021/06/30 01:29:59;;;;;;;83.68;28.33;;;;;;;;;;5096022;28;20153;-66
2021/06/30 01:32:25;;;;;;;106.32;30.38;;;;;;;;;;5095879;28;20069;-66
2021/06/30 01:34:50;;;;;;;96.97;29.70;;;;;;;;;;5096215;28;20032;-66
2021/06/30 01:37:15;;;;;;;158.25;35.20;;;;;;;;;;5095755;28;20054;-66
2021/06/30 01:39:40;;;;;;;112.88;31.20;;;;;;;;;;5095045;28;20028;-66
2021/06/30 01:42:06;;;;;;;118.13;31.27;;;;;;;;;;5095645;28;20020;-67
2021/06/30 01:44:31;;;;;;;90.60;28.58;;;;;;;;;;5095755;28;20043;-66
2021/06/30 01:46:56;;;;;;;105.28;29.88;;;;;;;;;;5095619;28;20472;-67
2021/06/30 01:49:22;;;;;;;91.18;29.15;;;;;;;;;;5095766;28;20464;-67
2021/06/30 01:51:47;;;;;;;94.45;29.20;;;;;;;;;;5095590;28;20028;-66
2021/06/30 01:54:13;;;;;;;81.95;28.35;;;;;;;;;;5095493;28;20051;-67
2021/06/30 01:56:39;;;;;;;90.88;28.38;;;;;;;;;;5095458;28;20114;-66
2021/06/30 01:59:11;;;;;;;120.47;30.75;;;;;;;;;;5095186;28;20070;-67
2021/06/30 02:01:37;;;;;;;117.93;29.90;;;;;;;;;;5094832;28;20111;-66
2021/06/30 02:04:02;;;;;;;86.43;28.85;;;;;;;;;;5095237;28;20139;-67
2021/06/30 02:06:28;;;;;;;82.03;27.48;;;;;;;;;;5094976;28;20035;-66
2021/06/30 02:08:58;;;;;;;93.72;28.20;;;;;;;;;;5095273;28;20039;-66
2021/06/30 02:11:24;;;;;;;77.30;27.10;;;;;;;;;;5095139;28;20028;-66
2021/06/30 02:13:49;;;;;;;86.15;28.30;;;;;;;;;;5095397;28;20031;-66
2021/06/30 02:16:14;;;;;;;85.72;28.83;;;;;;;;;;5094764;28;20389;-66
2021/06/30 02:18:40;;;;;;;98.68;28.42;;;;;;;;;;5095159;28;20028;-66
2021/06/30 02:21:06;;;;;;;122.25;30.75;;;;;;;;;;5094945;28;20206;-66
2021/06/30 02:23:31;;;;;;;109.32;29.90;;;;;;;;;;5095002;28;20111;-66
2021/06/30 02:25:57;;;;;;;88.68;28.58;;;;;;;;;;5094668;28;20020;-66
2021/06/30 02:28:22;;;;;;;98.45;29.42;;;;;;;;;;5094703;28;20046;-66
2021/06/30 02:30:47;;;;;;;80.78;27.63;;;;;;;;;;5094918;28;20024;-66
2021/06/30 02:33:13;;;;;;;85.85;28.92;;;;;;;;;;5094675;28;20372;-66
2021/06/30 02:35:38;;;;;;;111.80;29.73;;;;;;;;;;5094716;28;20061;-66
2021/06/30 02:38:04;;;;;;;96.95;28.27;;;;;;;;;;5094655;28;20035;-66
2021/06/30 02:40:29;;;;;;;79.40;26.33;;;;;;;;;;5094674;28;20419;-66
2021/06/30 02:42:55;;;;;;;102.18;28.38;;;;;;;;;;5094541;28;20028;-66
2021/06/30 02:45:20;;;;;;;82.25;26.30;;;;;;;;;;5094245;28;20020;-66
2021/06/30 02:47:46;;;;;;;90.32;28.02;;;;;;;;;;5094172;28;20055;-66
2021/06/30 02:50:15;;;;;;;94.25;28.48;;;;;;;;;;5094204;28;20044;-66
2021/06/30 02:52:41;;;;;;;90.22;28.48;;;;;;;;;;5093852;28;20128;-67
2021/06/30 02:55:06;;;;;;;120.32;31.52;;;;;;;;;;5094345;28;20059;-67
2021/06/30 02:57:32;;;;;;;112.30;29.45;;;;;;;;;;5094237;28;20100;-66
2021/06/30 02:59:57;;;;;;;102.93;29.70;;;;;;;;;;5094306;28;20031;-66
2021/06/30 03:02:23;;;;;;;100.40;28.20;;;;;;;;;;5094151;28;20028;-66
2021/06/30 03:04:48;;;;;;;82.32;28.58;;;;;;;;;;5093304;28;20455;-66
2021/06/30 03:07:13;;;;;;;87.03;27.73;;;;;;;;;;5094050;28;20032;-66
2021/06/30 03:09:39;;;;;;;84.32;27.90;;;;;;;;;;5094134;28;20103;-66
2021/06/30 03:12:04;;;;;;;80.38;26.70;;;;;;;;;;5094103;28;20511;-66
2021/06/30 03:14:29;;;;;;;83.65;26.17;;;;;;;;;;5093981;28;20082;-66
2021/06/30 03:16:55;;;;;;;86.50;26.83;;;;;;;;;;5093585;28;20361;-65
2021/06/30 03:19:20;;;;;;;77.47;27.38;;;;;;;;;;5093973;28;20036;-66
2021/06/30 03:21:46;;;;;;;96.75;26.30;;;;;;;;;;5093816;28;20492;-66
2021/06/30 03:24:11;;;;;;;119.40;28.98;;;;;;;;;;5093678;28;20460;-66
2021/06/30 03:26:36;;;;;;;102.45;28.52;;;;;;;;;;5093758;28;20032;-66
2021/06/30 03:29:02;;;;;;;89.28;26.63;;;;;;;;;;5094177;28;20024;-66
2021/06/30 03:31:28;;;;;;;82.65;27.13;;;;;;;;;;5093719;28;20052;-66
2021/06/30 03:33:53;;;;;;;87.65;26.67;;;;;;;;;;5093658;28;20036;-66
2021/06/30 03:36:18;;;;;;;92.60;26.70;;;;;;;;;;5093573;28;20031;-66
2021/06/30 03:38:43;;;;;;;77.55;25.20;;;;;;;;;;5093700;28;20024;-66
2021/06/30 03:41:09;;;;;;;96.00;27.40;;;;;;;;;;5093847;28;20043;-66
2021/06/30 03:43:34;;;;;;;80.68;25.65;;;;;;;;;;5093512;28;20438;-66
2021/06/30 03:45:59;;;;;;;74.72;25.50;;;;;;;;;;5093586;28;20457;-66
2021/06/30 03:48:25;;;;;;;136.10;31.13;;;;;;;;;;5093181;28;20055;-66
2021/06/30 03:50:50;;;;;;;106.32;28.10;;;;;;;;;;5093474;28;20031;-67
2021/06/30 03:53:15;;;;;;;78.90;24.65;;;;;;;;;;5092041;28;20031;-67
2021/06/30 03:55:41;;;;;;;115.35;29.15;;;;;;;;;;5093248;28;20405;-66
2021/06/30 03:58:06;;;;;;;72.72;24.70;;;;;;;;;;5093573;28;20030;-66
2021/06/30 04:00:31;;;;;;;94.18;27.52;;;;;;;;;;5093384;28;20020;-66
2021/06/30 04:02:56;;;;;;;73.13;26.10;;;;;;;;;;5093055;28;20038;-66
2021/06/30 04:05:22;;;;;;;101.45;28.00;;;;;;;;;;5093397;28;20219;-66
2021/06/30 04:07:48;;;;;;;91.70;27.85;;;;;;;;;;5093182;28;20024;-66
2021/06/30 04:10:13;;;;;;;141.60;30.20;;;;;;;;;;5093235;28;20035;-66
2021/06/30 04:12:38;;;;;;;121.75;29.27;;;;;;;;;;5093091;28;20081;-66
2021/06/30 04:15:04;;;;;;;71.07;24.65;;;;;;;;;;5093241;28;20043;-66
2021/06/30 04:17:30;;;;;;;73.03;24.00;;;;;;;;;;5093077;28;20032;-66
2021/06/30 04:19:55;;;;;;;81.13;26.45;;;;;;;;;;5092948;28;20031;-66
2021/06/30 04:22:20;;;;;;;84.72;26.65;;;;;;;;;;5093062;28;20020;-66
2021/06/30 04:24:45;;;;;;;72.57;24.42;;;;;;;;;;5092892;28;20388;-66
2021/06/30 04:27:11;;;;;;;131.52;29.60;;;;;;;;;;5093015;28;20036;-67
2021/06/30 04:29:36;;;;;;;91.85;26.63;;;;;;;;;;5093064;28;20052;-66
2021/06/30 04:32:02;;;;;;;78.25;24.58;;;;;;;;;;5092995;28;20082;-66
2021/06/30 04:34:28;;;;;;;87.07;25.92;;;;;;;;;;5093007;28;20040;-66
2021/06/30 04:36:53;;;;;;;83.90;25.90;;;;;;;;;;5092899;28;20066;-66
2021/06/30 04:39:19;;;;;;;115.82;28.35;;;;;;;;;;5093050;28;20036;-66
2021/06/30 04:41:45;;;;;;;68.47;24.38;;;;;;;;;;5093048;28;20102;-66
2021/06/30 04:44:12;;;;;;;69.25;24.33;;;;;;;;;;5093005;28;20032;-66
2021/06/30 04:46:37;;;;;;;103.90;26.90;;;;;;;;;;5092791;28;20032;-65
2021/06/30 04:49:02;;;;;;;69.60;23.65;;;;;;;;;;5092620;28;20058;-66
2021/06/30 04:51:27;;;;;;;100.18;26.17;;;;;;;;;;5092976;28;20023;-66
2021/06/30 04:53:53;;;;;;;106.25;26.10;;;;;;;;;;5092928;28;20028;-65
2021/06/30 04:56:26;;;;;;;63.83;23.35;;;;;;;;;;5092971;28;20031;-67
2021/06/30 04:58:52;;;;;;;76.40;23.35;;;;;;;;;;5092711;28;20024;-66
2021/06/30 05:01:17;;;;;;;68.72;22.60;;;;;;;;;;5092912;28;20078;-66
2021/06/30 05:03:42;;;;;;;64.25;23.00;;;;;;;;;;5092508;28;20461;-66
2021/06/30 05:06:08;;;;;;;80.00;23.75;;;;;;;;;;5092905;28;20024;-66
2021/06/30 05:08:33;;;;;;;62.17;21.20;;;;;;;;;;5092621;28;20468;-66
2021/06/30 05:10:58;;;;;;;50.17;20.48;;;;;;;;;;5092996;28;20028;-66
2021/06/30 05:13:24;;;;;;;66.97;22.58;;;;;;;;;;5092648;28;20107;-66
2021/06/30 05:15:49;;;;;;;78.65;23.42;;;;;;;;;;5096020;28;20479;-66
2021/06/30 05:18:14;;;;;;;40.13;18.05;;;;;;;;;;5096222;28;20447;-66
2021/06/30 05:20:40;;;;;;;55.72;20.58;;;;;;;;;;5096261;28;20016;-66
2021/06/30 05:23:05;;;;;;;86.10;23.08;;;;;;;;;;5096388;28;20452;-66
2021/06/30 05:25:31;;;;;;;54.92;19.70;;;;;;;;;;5096229;28;20368;-66
2021/06/30 05:27:56;;;;;;;56.92;20.50;;;;;;;;;;5096089;28;20402;-66
2021/06/30 05:30:22;;;;;;;54.03;20.02;;;;;;;;;;5096106;28;20032;-66
2021/06/30 05:32:47;;;;;;;37.33;16.58;;;;;;;;;;5095856;28;20028;-67
2021/06/30 05:35:12;;;;;;;73.03;21.63;;;;;;;;;;5095934;28;20498;-67
2021/06/30 05:37:38;;;;;;;44.13;17.88;;;;;;;;;;5095749;28;20027;-66
2021/06/30 05:40:04;;;;;;;30.60;15.25;;;;;;;;;;5095800;28;20032;-66
2021/06/30 05:42:29;;;;;;;46.03;17.60;;;;;;;;;;5095986;28;20054;-66
2021/06/30 05:44:54;;;;;;;39.40;16.80;;;;;;;;;;5095788;28;20060;-66
2021/06/30 05:47:20;;;;;;;38.60;17.17;;;;;;;;;;5095706;28;20028;-67
2021/06/30 05:49:46;;;;;;;37.30;17.13;;;;;;;;;;5095379;28;20103;-66
2021/06/30 05:52:11;;;;;;;30.75;15.80;;;;;;;;;;5095630;28;20038;-67
2021/06/30 05:54:36;;;;;;;44.85;19.20;;;;;;;;;;5095418;28;20036;-67
2021/06/30 05:57:02;;;;;;;36.60;16.13;;;;;;;;;;5095781;28;20096;-67
2021/06/30 05:59:27;;;;;;;35.30;16.70;;;;;;;;;;5095540;28;20032;-66
2021/06/30 06:01:52;;;;;;;34.20;16.58;;;;;;;;;;5095493;28;20035;-66
2021/06/30 06:04:17;;;;;;;29.70;14.82;;;;;;;;;;5095369;28;20048;-67
2021/06/30 06:06:44;;;;;;;32.22;16.52;;;;;;;;;;5095289;28;20408;-67
2021/06/30 06:09:09;;;;;;;28.90;15.85;;;;;;;;;;5095504;28;20032;-66
2021/06/30 06:11:34;;;;;;;23.30;14.65;;;;;;;;;;5095245;28;20020;-66
2021/06/30 06:14:00;;;;;;;25.23;13.82;;;;;;;;;;5094794;28;20032;-66
2021/06/30 06:16:25;;;;;;;25.48;14.98;;;;;;;;;;5095317;28;20119;-66
2021/06/30 06:18:50;;;;;;;27.73;15.10;;;;;;;;;;5094672;28;20388;-66
2021/06/30 06:21:16;;;;;;;22.40;14.27;;;;;;;;;;5095147;28;20067;-67
2021/06/30 06:23:42;;;;;;;22.50;13.52;;;;;;;;;;5094831;28;20036;-67
2021/06/30 06:26:08;;;;;;;20.55;12.93;;;;;;;;;;5095167;28;20088;-66
2021/06/30 06:28:34;;;;;;;22.05;13.13;;;;;;;;;;5094797;28;20035;-66
2021/06/30 06:30:59;;;;;;;22.55;14.00;;;;;;;;;;5094990;28;20027;-66
2021/06/30 06:33:25;;;;;;;16.05;11.02;;;;;;;;;;5094729;28;20020;-66
2021/06/30 06:35:50;;;;;;;18.63;11.70;;;;;;;;;;5094697;28;20388;-67
2021/06/30 06:38:16;;;;;;;18.83;12.15;;;;;;;;;;5094883;28;20055;-67
2021/06/30 06:40:41;;;;;;;24.65;13.88;;;;;;;;;;5094595;28;20023;-67
2021/06/30 06:43:07;;;;;;;21.52;12.95;;;;;;;;;;5094555;28;20036;-67
2021/06/30 06:45:33;;;;;;;21.48;14.07;;;;;;;;;;5094569;28;20035;-67
2021/06/30 06:47:58;;;;;;;19.67;12.90;;;;;;;;;;5094549;28;20377;-66
2021/06/30 06:50:23;;;;;;;37.92;22.50;;;;;;;;;;5094549;28;20067;-67
2021/06/30 06:52:49;;;;;;;31.67;20.58;;;;;;;;;;5094400;28;20118;-66
2021/06/30 06:55:14;;;;;;;24.30;15.63;;;;;;;;;;5094354;28;20046;-67
2021/06/30 06:57:39;;;;;;;29.00;19.73;;;;;;;;;;5092991;28;20035;-67
2021/06/30 07:00:05;;;;;;;30.50;19.38;;;;;;;;;;5094593;28;20039;-67
2021/06/30 07:02:30;;;;;;;28.33;18.75;;;;;;;;;;5094267;28;20077;-67
2021/06/30 07:04:55;;;;;;;26.13;18.00;;;;;;;;;;5094274;28;20499;-67
2021/06/30 07:07:21;;;;;;;25.23;17.98;;;;;;;;;;5094120;28;20372;-66
2021/06/30 07:09:47;;;;;;;24.88;16.52;;;;;;;;;;5094161;28;20099;-67
2021/06/30 07:12:12;;;;;;;20.98;14.55;;;;;;;;;;5093951;28;20122;-67
2021/06/30 07:14:37;;;;;;;23.67;15.00;;;;;;;;;;5093988;28;20036;-67
2021/06/30 07:17:03;;;;;;;18.77;12.93;;;;;;;;;;5094036;28;20020;-67
2021/06/30 07:19:28;;;;;;;19.33;12.45;;;;;;;;;;5093665;28;20039;-67
2021/06/30 07:21:53;;;;;;;26.08;15.98;;;;;;;;;;5093926;28;20166;-67
2021/06/30 07:24:18;;;;;;;21.67;15.30;;;;;;;;;;5093854;28;20141;-67
2021/06/30 07:26:44;;;;;;;18.52;14.63;;;;;;;;;;5093863;28;20372;-68
2021/06/30 07:29:09;;;;;;;20.63;14.23;;;;;;;;;;5093775;28;20055;-67
2021/06/30 07:31:36;;;;;;;19.70;15.30;;;;;;;;;;5093673;28;20032;-67
2021/06/30 07:34:01;;;;;;;19.58;13.40;;;;;;;;;;5093556;28;20040;-66
2021/06/30 07:36:27;;;;;;;18.58;13.27;;;;;;;;;;5093212;28;20381;-68
2021/06/30 07:38:52;;;;;;;20.67;13.30;;;;;;;;;;5093102;28;20028;-67
2021/06/30 07:41:17;;;;;;;21.20;13.43;;;;;;;;;;5093619;28;20032;-68
2021/06/30 07:43:42;;;;;;;14.80;11.60;;;;;;;;;;5093524;28;20028;-68
2021/06/30 07:46:08;;;;;;;16.98;11.68;;;;;;;;;;5093597;28;20444;-68
2021/06/30 07:48:33;;;;;;;19.50;12.32;;;;;;;;;;5093523;28;20601;-65
2021/06/30 07:50:58;;;;;;;17.27;11.75;;;;;;;;;;5093583;28;20426;-66
2021/06/30 07:53:24;;;;;;;15.52;11.48;;;;;;;;;;5093438;28;20016;-66
2021/06/30 07:55:49;;;;;;;17.23;11.40;;;;;;;;;;5092998;28;20047;-66
2021/06/30 07:58:16;;;;;;;15.38;10.30;;;;;;;;;;5093344;28;20115;-66
2021/06/30 08:00:41;;;;;;;12.52;10.13;;;;;;;;;;5093035;28;20487;-67
2021/06/30 08:03:07;;;;;;;12.75;9.73;;;;;;;;;;5093317;28;20032;-66
2021/06/30 08:05:33;;;;;;;13.98;8.63;;;;;;;;;;5092945;28;20040;-67
2021/06/30 08:07:58;;;;;;;11.23;8.48;;;;;;;;;;5092882;28;20438;-67
2021/06/30 08:10:24;;;;;;;16.00;9.60;;;;;;;;;;5092041;28;20024;-66
2021/06/30 08:12:49;;;;;;;12.82;9.00;;;;;;;;;;5093167;28;20115;-66
2021/06/30 08:15:14;;;;;;;13.57;8.57;;;;;;;;;;5093074;28;20028;-66
2021/06/30 08:17:40;;;;;;;13.73;8.35;;;;;;;;;;5093104;28;20115;-66
2021/06/30 08:20:06;;;;;;;15.90;8.98;;;;;;;;;;5076014;28;20032;-68
2021/06/30 08:22:33;;;;;;;14.70;9.40;;;;;;;;;;5072861;28;20028;-68
2021/06/30 08:24:58;;;;;;;12.63;8.43;;;;;;;;;;5072862;28;20032;-68
2021/06/30 08:27:23;;;;;;;15.32;9.75;;;;;;;;;;5079296;28;20077;-68
2021/06/30 08:29:49;;;;;;;14.90;8.77;;;;;;;;;;5092914;28;20103;-68
2021/06/30 08:32:15;;;;;;;15.73;9.48;;;;;;;;;;5093091;28;20063;-69
2021/06/30 08:34:40;;;;;;;17.00;10.20;;;;;;;;;;5092681;28;20032;-69
2021/06/30 08:37:07;;;;;;;15.23;10.77;;;;;;;;;;5092691;28;20061;-68
2021/06/30 08:39:32;;;;;;;16.23;9.63;;;;;;;;;;5092628;28;20741;-69
2021/06/30 08:41:58;;;;;;;12.63;9.02;;;;;;;;;;5092967;28;20047;-69
2021/06/30 08:44:23;;;;;;;19.88;9.32;;;;;;;;;;5091682;28;20024;-69
2021/06/30 08:46:50;;;;;;;15.80;9.43;;;;;;;;;;5092576;28;20470;-69
2021/06/30 08:49:18;;;;;;;13.15;8.90;;;;;;;;;;5093528;28;20036;-69
2021/06/30 08:51:44;;;;;;;13.07;8.52;;;;;;;;;;5096775;28;20035;-69
2021/06/30 08:54:11;;;;;;;15.05;8.15;;;;;;;;;;5096507;28;20111;-69
2021/06/30 08:56:37;;;;;;;15.52;8.10;;;;;;;;;;5096441;28;20502;-69
2021/06/30 08:59:02;;;;;;;10.73;8.15;;;;;;;;;;5096885;28;20020;-69
2021/06/30 09:01:29;;;;;;;12.13;8.57;;;;;;;;;;5096679;28;20031;-69
2021/06/30 09:03:56;;;;;;;16.88;8.32;;;;;;;;;;5096180;28;20044;-69
2021/06/30 09:06:22;;;;;;;11.25;8.20;;;;;;;;;;5096593;28;20025;-69
2021/06/30 09:08:47;;;;;;;13.02;8.23;;;;;;;;;;5096344;28;20119;-69
2021/06/30 09:11:16;;;;;;;10.17;7.50;;;;;;;;;;5096489;28;20081;-69
2021/06/30 09:13:42;;;;;;;10.93;7.68;;;;;;;;;;5096180;28;20237;-69
2021/06/30 09:16:07;;;;;;;15.15;8.68;;;;;;;;;;5096341;28;20047;-69
2021/06/30 09:18:35;;;;;;;13.40;8.70;;;;;;;;;;5096222;28;20035;-68
2021/06/30 09:21:16;;;;;;;12.85;9.10;;;;;;;;;;5096263;28;20022;-67
2021/06/30 09:24:00;;;;;;;14.77;9.38;;;;;;;;;;5096054;28;20031;-68
2021/06/30 09:26:26;;;;;;;12.93;9.10;;;;;;;;;;5096115;28;20020;-67
2021/06/30 09:29:00;;;;;;;11.40;8.50;;;;;;;;;;5095969;28;20036;-68
2021/06/30 09:31:25;;;;;;;12.48;8.50;;;;;;;;;;5096094;28;20024;-67
2021/06/30 09:33:54;;;;;;;10.13;8.75;;;;;;;;;;5095759;28;20032;-68
2021/06/30 09:36:21;;;;;;;12.90;8.00;;;;;;;;;;5095981;28;20020;-67
2021/06/30 09:38:46;;;;;;;11.88;8.68;;;;;;;;;;5095843;28;20055;-67
2021/06/30 09:41:30;;;;;;;12.38;9.38;;;;;;;;;;5094625;28;20133;-67
2021/06/30 09:44:02;;;;;;;12.55;9.20;;;;;;;;;;5095741;28;20020;-68
2021/06/30 09:46:27;;;;;;;14.98;9.73;;;;;;;;;;5095748;28;20350;-68
2021/06/30 09:48:57;;;;;;;11.07;8.37;;;;;;;;;;5095585;28;20031;-67
2021/06/30 09:51:23;;;;;;;10.32;7.50;;;;;;;;;;5095540;28;20713;-67
2021/06/30 09:53:48;;;;;;;14.07;9.55;;;;;;;;;;5095459;28;20043;-67
2021/06/30 09:56:36;;;;;;;13.93;8.93;;;;;;;;;;5095481;28;20042;-68
2021/06/30 09:59:13;;;;;;;14.55;9.27;;;;;;;;;;5095755;28;20020;-68
2021/06/30 10:01:38;;;;;;;13.48;8.60;;;;;;;;;;5095058;28;20049;-68
2021/06/30 10:04:04;;;;;;;14.97;9.30;;;;;;;;;;5095121;28;20044;-67
2021/06/30 10:06:32;;;;;;;17.08;10.32;;;;;;;;;;5095130;28;20264;-68
2021/06/30 10:08:58;;;;;;;11.23;8.95;;;;;;;;;;5095230;28;20032;-67
2021/06/30 10:11:24;;;;;;;11.95;9.40;;;;;;;;;;5095202;28;20376;-67
2021/06/30 10:13:50;;;;;;;14.77;9.88;;;;;;;;;;5095060;28;20114;-67
2021/06/30 10:16:18;;;;;;;13.52;9.75;;;;;;;;;;5095122;28;20119;-68
2021/06/30 10:18:43;;;;;;;15.30;9.18;;;;;;;;;;5095031;28;20032;-68
2021/06/30 10:21:10;;;;;;;12.27;9.75;;;;;;;;;;5095161;28;20036;-68
2021/06/30 10:23:36;;;;;;;15.30;11.00;;;;;;;;;;5095116;28;20409;-68
2021/06/30 10:26:01;;;;;;;15.13;9.80;;;;;;;;;;5095036;28;20015;-68
2021/06/30 10:28:27;;;;;;;16.90;10.02;;;;;;;;;;5094820;28;20530;-68
2021/06/30 10:30:53;;;;;;;13.68;8.57;;;;;;;;;;5094924;28;20499;-67
2021/06/30 10:33:28;;;;;;;14.63;10.10;;;;;;;;;;5094499;28;20055;-67
2021/06/30 10:35:54;;;;;;;13.98;10.70;;;;;;;;;;5094774;28;20047;-67
2021/06/30 10:38:19;;;;;;;18.02;11.23;;;;;;;;;;5094678;28;20526;-68
2021/06/30 10:40:44;;;;;;;18.60;10.93;;;;;;;;;;5094430;28;20434;-67
2021/06/30 10:43:13;;;;;;;14.07;10.63;;;;;;;;;;5094616;28;20036;-67
2021/06/30 10:45:40;;;;;;;12.95;10.23;;;;;;;;;;5094264;28;20472;-67
2021/06/30 10:48:07;;;;;;;13.68;10.52;;;;;;;;;;5094810;28;20043;-66
2021/06/30 10:50:34;;;;;;;15.45;11.60;;;;;;;;;;5094704;28;20032;-67
2021/06/30 10:53:02;;;;;;;15.45;11.07;;;;;;;;;;5094665;28;20028;-66
2021/06/30 10:55:40;;;;;;;20.25;13.27;;;;;;;;;;5094505;28;20036;-66
2021/06/30 11:00:51;;;;;;;17.52;11.70;;;;;;;;;;5094281;28;20044;-68
2021/06/30 11:03:35;;;;;;;16.83;12.52;;;;;;;;;;5094234;28;20111;-67
2021/06/30 11:06:07;;;;;;;21.15;13.10;;;;;;;;;;5094419;28;20036;-68
2021/06/30 11:08:51;;;;;;;18.38;12.88;;;;;;;;;;5094201;28;20479;-68
2021/06/30 11:11:16;;;;;;;16.63;14.00;;;;;;;;;;5093741;28;20077;-68
2021/06/30 11:13:51;;;;;;;23.08;12.60;;;;;;;;;;5093710;28;20028;-68
2021/06/30 11:16:36;;;;;;;17.73;12.32;;;;;;;;;;5094132;28;20036;-67
2021/06/30 11:19:01;;;;;;;20.42;13.70;;;;;;;;;;5093666;28;20365;-68
2021/06/30 11:21:45;;;;;;;20.40;13.45;;;;;;;;;;5094020;28;20085;-67
2021/06/30 11:24:29;;;;;;;24.17;13.55;;;;;;;;;;5093772;28;20058;-68
2021/06/30 11:26:55;;;;;;;22.70;13.82;;;;;;;;;;5093804;28;20081;-68
2021/06/30 11:29:39;;;;;;;19.13;13.93;;;;;;;;;;5093765;28;20456;-68
2021/06/30 11:32:04;;;;;;;16.42;12.48;;;;;;;;;;5093526;28;20028;-68
2021/06/30 11:34:35;;;;;;;18.80;12.88;;;;;;;;;;5093738;28;20042;-67
2021/06/30 11:37:01;;;;;;;18.90;13.23;;;;;;;;;;5093822;28;20032;-68
2021/06/30 11:39:27;;;;;;;20.90;13.75;;;;;;;;;;5093639;28;20111;-68
2021/06/30 11:41:52;;;;;;;22.70;13.52;;;;;;;;;;5093675;28;20082;-67
2021/06/30 11:44:20;;;;;;;20.05;13.43;;;;;;;;;;5093197;28;20036;-67
2021/06/30 11:46:47;;;;;;;19.80;13.38;;;;;;;;;;5093683;28;20062;-68
2021/06/30 11:49:16;;;;;;;21.20;14.80;;;;;;;;;;5093454;28;20107;-68
2021/06/30 11:51:42;;;;;;;19.23;13.48;;;;;;;;;;5092252;28;20362;-68
2021/06/30 11:54:14;;;;;;;21.38;15.73;;;;;;;;;;5093419;28;20023;-68
2021/06/30 11:56:40;;;;;;;22.50;13.73;;;;;;;;;;5093455;28;20051;-68
2021/06/30 11:59:10;;;;;;;22.45;13.52;;;;;;;;;;5093306;28;20472;-68
2021/06/30 12:01:37;;;;;;;23.60;14.10;;;;;;;;;;5093385;28;20028;-68
2021/06/30 12:04:06;;;;;;;19.55;13.05;;;;;;;;;;5093085;28;20055;-68
2021/06/30 12:06:33;;;;;;;16.45;12.82;;;;;;;;;;5093318;28;20043;-68
2021/06/30 12:09:08;;;;;;;16.95;11.90;;;;;;;;;;5093221;28;20020;-68
2021/06/30 12:11:35;;;;;;;22.55;12.98;;;;;;;;;;5093296;28;20028;-68
2021/06/30 12:14:11;;;;;;;19.80;13.38;;;;;;;;;;5093186;28;20060;-68
2021/06/30 12:16:39;;;;;;;21.52;13.88;;;;;;;;;;5093197;28;20028;-68
2021/06/30 12:19:34;;;;;;;19.05;13.35;;;;;;;;;;5093203;28;20036;-68
2021/06/30 12:22:00;;;;;;;19.03;12.53;;;;;;;;;;5091875;28;20040;-68
2021/06/30 12:24:25;;;;;;;19.05;13.35;;;;;;;;;;5096114;28;20284;-68
2021/06/30 12:26:54;;;;;;;18.25;13.20;;;;;;;;;;5097230;28;20023;-67
2021/06/30 12:29:19;;;;;;;22.92;13.82;;;;;;;;;;5097222;28;20064;-68
2021/06/30 12:31:44;;;;;;;17.73;12.90;;;;;;;;;;5097302;28;20428;-68
2021/06/30 12:34:10;;;;;;;20.17;14.90;;;;;;;;;;5096845;28;20025;-67
2021/06/30 12:36:35;;;;;;;28.90;15.90;;;;;;;;;;5096947;28;20028;-68
2021/06/30 12:39:16;;;;;;;24.45;14.70;;;;;;;;;;5096754;28;20024;-68
2021/06/30 12:41:50;;;;;;;19.73;15.23;;;;;;;;;;5097096;28;20024;-68
2021/06/30 12:44:15;;;;;;;22.02;15.48;;;;;;;;;;5095550;28;20090;-68
2021/06/30 12:46:41;;;;;;;23.90;15.52;;;;;;;;;;5097011;28;20488;-68
2021/06/30 12:49:16;;;;;;;21.90;15.88;;;;;;;;;;5096556;28;20024;-68
2021/06/30 12:51:43;;;;;;;18.73;14.55;;;;;;;;;;5097102;28;20036;-67
2021/06/30 12:54:09;;;;;;;25.48;17.30;;;;;;;;;;5096780;28;20020;-67
2021/06/30 12:56:43;;;;;;;29.05;15.88;;;;;;;;;;5096779;28;20105;-68
2021/06/30 12:59:13;;;;;;;27.13;16.83;;;;;;;;;;5096628;28;20103;-68
2021/06/30 13:01:41;;;;;;;23.15;16.17;;;;;;;;;;5096597;28;20111;-67
2021/06/30 13:04:08;;;;;;;19.60;14.30;;;;;;;;;;5096366;28;20123;-68
2021/06/30 13:06:45;;;;;;;22.85;14.23;;;;;;;;;;5096528;28;20059;-67
2021/06/30 13:09:12;;;;;;;22.35;15.30;;;;;;;;;;5096514;28;20024;-68
2021/06/30 13:11:43;;;;;;;23.25;14.57;;;;;;;;;;5096375;28;20061;-67
2021/06/30 13:14:14;;;;;;;20.88;13.80;;;;;;;;;;5096398;28;20020;-68
2021/06/30 13:16:51;;;;;;;22.27;13.50;;;;;;;;;;5096329;28;20035;-68
2021/06/30 13:19:20;;;;;;;22.60;13.77;;;;;;;;;;5096282;28;20039;-68
2021/06/30 13:21:47;;;;;;;21.90;14.07;;;;;;;;;;5096045;28;20380;-67
2021/06/30 13:24:23;;;;;;;24.40;15.43;;;;;;;;;;5096152;28;20032;-67
2021/06/30 13:30:01;;;;;;;22.02;16.90;;;;;;;;;;5096090;28;20426;-67
2021/06/30 13:35:18;;;;;;;20.40;13.65;;;;;;;;;;5095098;28;20077;-68
2021/06/30 13:37:43;;;;;;;24.17;14.07;;;;;;;;;;5095989;28;20050;-68
2021/06/30 13:40:09;;;;;;;17.77;13.32;;;;;;;;;;5096195;28;20531;-68
2021/06/30 13:42:34;;;;;;;24.48;13.82;;;;;;;;;;5095952;28;20016;-68
2021/06/30 13:45:00;;;;;;;20.40;14.27;;;;;;;;;;5095689;28;20081;-68
2021/06/30 13:47:25;;;;;;;20.17;14.38;;;;;;;;;;5095809;28;20036;-67
2021/06/30 13:49:50;;;;;;;24.27;14.60;;;;;;;;;;5095674;28;20027;-68
2021/06/30 13:52:15;;;;;;;22.85;15.55;;;;;;;;;;5095706;28;20380;-68
2021/06/30 13:54:41;;;;;;;24.10;16.50;;;;;;;;;;5095584;28;20028;-67
2021/06/30 13:57:06;;;;;;;25.50;15.65;;;;;;;;;;5079354;28;20024;-67
2021/06/30 13:59:31;;;;;;;21.02;14.38;;;;;;;;;;5074987;28;20035;-68
2021/06/30 14:01:57;;;;;;;19.83;14.15;;;;;;;;;;5075457;28;20127;-67
2021/06/30 14:04:22;;;;;;;18.90;13.57;;;;;;;;;;5074818;28;20044;-68
2021/06/30 14:06:47;;;;;;;21.77;15.27;;;;;;;;;;5075225;28;20033;-68
2021/06/30 14:09:13;;;;;;;21.38;14.40;;;;;;;;;;5075121;28;20051;-67
2021/06/30 14:11:38;;;;;;;22.42;15.15;;;;;;;;;;5074780;28;20107;-67
2021/06/30 14:14:03;;;;;;;26.70;16.48;;;;;;;;;;5075032;28;20028;-68
2021/06/30 14:16:29;;;;;;;20.73;14.73;;;;;;;;;;5075023;28;20036;-67
2021/06/30 14:18:54;;;;;;;24.67;15.52;;;;;;;;;;5075184;28;20016;-67
2021/06/30 14:21:19;;;;;;;21.48;14.93;;;;;;;;;;5074516;28;20385;-68
2021/06/30 14:23:45;;;;;;;21.08;15.52;;;;;;;;;;5074813;28;20040;-68